sensor_id;sensor_type;location;lat;lon;timestamp;pressure;altitude;pressure_sealevel;temperature;humidity
46598;BME280;32318;48.858;8.252;2024-02-21T00:00:30;101382.00;;;7.69;81.89
46598;BME280;32318;48.858;8.252;2024-02-21T00:08:30;101366.88;;;7.70;82.13
46598;BME280;32318;48.858;8.252;2024-02-21T00:16:30;101373.91;;;7.71;81.54
46598;BME280;32318;48.858;8.252;2024-02-21T00:24:30;101360.38;;;7.74;81.59
46598;BME280;32318;48.858;8.252;2024-02-21T00:32:31;101346.47;;;7.71;81.26
46598;BME280;32318;48.858;8.252;2024-02-21T00:40:32;101335.84;;;7.71;81.04
46598;BME280;32318;48.858;8.252;2024-02-21T00:48:32;101322.56;;;7.71;81.50
46598;BME280;32318;48.858;8.252;2024-02-21T00:56:32;101309.50;;;7.67;81.54
46598;BME280;32318;48.858;8.252;2024-02-21T01:04:34;101307.56;;;7.69;81.83
46598;BME280;32318;48.858;8.252;2024-02-21T01:12:35;101291.97;;;7.65;81.98
46598;BME280;32318;48.858;8.252;2024-02-21T01:20:35;101279.03;;;7.60;84.36
46598;BME280;32318;48.858;8.252;2024-02-21T01:28:35;101251.50;;;7.61;84.21
46598;BME280;32318;48.858;8.252;2024-02-21T01:36:35;101227.34;;;7.53;83.64
46598;BME280;32318;48.858;8.252;2024-02-21T01:44:36;101204.84;;;7.46;83.84
46598;BME280;32318;48.858;8.252;2024-02-21T01:52:38;101219.13;;;7.45;84.86
46598;BME280;32318;48.858;8.252;2024-02-21T02:00:40;101212.38;;;7.52;85.51
46598;BME280;32318;48.858;8.252;2024-02-21T02:08:42;101216.44;;;7.56;85.94
46598;BME280;32318;48.858;8.252;2024-02-21T02:16:46;101208.38;;;7.58;86.42
46598;BME280;32318;48.858;8.252;2024-02-21T02:24:46;101202.81;;;7.61;86.21
46598;BME280;32318;48.858;8.252;2024-02-21T02:32:46;101198.13;;;7.53;86.50
46598;BME280;32318;48.858;8.252;2024-02-21T02:40:47;101167.41;;;7.49;86.78
46598;BME280;32318;48.858;8.252;2024-02-21T02:48:47;101164.38;;;7.42;86.98
46598;BME280;32318;48.858;8.252;2024-02-21T02:56:49;101152.09;;;7.41;86.31
46598;BME280;32318;48.858;8.252;2024-02-21T03:04:50;101142.53;;;7.38;86.22
46598;BME280;32318;48.858;8.252;2024-02-21T03:12:50;101112.97;;;7.32;85.72
46598;BME280;32318;48.858;8.252;2024-02-21T03:20:53;101104.41;;;7.17;86.04
46598;BME280;32318;48.858;8.252;2024-02-21T03:28:53;101101.38;;;7.10;85.78
46598;BME280;32318;48.858;8.252;2024-02-21T03:36:53;101091.97;;;7.06;85.92
46598;BME280;32318;48.858;8.252;2024-02-21T03:44:53;101078.78;;;7.04;86.42
46598;BME280;32318;48.858;8.252;2024-02-21T03:52:54;101083.50;;;7.01;86.32
46598;BME280;32318;48.858;8.252;2024-02-21T04:00:54;101092.31;;;6.90;86.26
46598;BME280;32318;48.858;8.252;2024-02-21T04:08:55;101103.75;;;6.79;86.35
46598;BME280;32318;48.858;8.252;2024-02-21T04:16:55;101110.88;;;6.67;86.62
46598;BME280;32318;48.858;8.252;2024-02-21T04:24:56;101095.75;;;6.56;86.65
46598;BME280;32318;48.858;8.252;2024-02-21T04:32:56;101083.91;;;6.49;87.18
46598;BME280;32318;48.858;8.252;2024-02-21T04:40:56;101078.22;;;6.42;86.59
46598;BME280;32318;48.858;8.252;2024-02-21T04:48:58;101075.91;;;6.38;87.32
46598;BME280;32318;48.858;8.252;2024-02-21T04:56:58;101062.66;;;6.38;87.49
46598;BME280;32318;48.858;8.252;2024-02-21T05:04:58;101028.28;;;6.36;86.93
46598;BME280;32318;48.858;8.252;2024-02-21T05:12:59;101025.59;;;6.25;87.14
46598;BME280;32318;48.858;8.252;2024-02-21T05:21:01;101009.44;;;6.17;87.56
46598;BME280;32318;48.858;8.252;2024-02-21T05:29:01;101008.47;;;6.18;88.57
46598;BME280;32318;48.858;8.252;2024-02-21T05:37:01;101007.03;;;6.14;87.90
46598;BME280;32318;48.858;8.252;2024-02-21T05:45:02;101001.47;;;6.05;88.31
46598;BME280;32318;48.858;8.252;2024-02-21T05:53:03;101000.00;;;6.01;87.93
46598;BME280;32318;48.858;8.252;2024-02-21T06:01:03;100994.91;;;5.98;87.49
46598;BME280;32318;48.858;8.252;2024-02-21T06:09:06;100992.22;;;5.87;87.75
46598;BME280;32318;48.858;8.252;2024-02-21T06:17:08;100985.78;;;5.78;88.80
46598;BME280;32318;48.858;8.252;2024-02-21T06:25:09;100970.13;;;5.75;88.82
46598;BME280;32318;48.858;8.252;2024-02-21T06:33:10;100967.69;;;5.72;88.24
46598;BME280;32318;48.858;8.252;2024-02-21T06:41:17;100969.28;;;5.74;88.95
46598;BME280;32318;48.858;8.252;2024-02-21T06:49:18;100956.16;;;5.73;88.25
46598;BME280;32318;48.858;8.252;2024-02-21T06:57:19;100945.22;;;5.77;88.45
46598;BME280;32318;48.858;8.252;2024-02-21T07:05:19;100945.94;;;5.79;88.67
46598;BME280;32318;48.858;8.252;2024-02-21T07:13:19;100951.31;;;6.02;87.41
46598;BME280;32318;48.858;8.252;2024-02-21T07:21:20;100945.81;;;6.05;86.86
46598;BME280;32318;48.858;8.252;2024-02-21T07:29:20;100939.06;;;6.12;86.95
46598;BME280;32318;48.858;8.252;2024-02-21T07:37:21;100931.84;;;6.26;87.34
46598;BME280;32318;48.858;8.252;2024-02-21T07:45:21;100938.25;;;6.35;86.52
46598;BME280;32318;48.858;8.252;2024-02-21T07:53:23;100944.28;;;6.48;86.40
46598;BME280;32318;48.858;8.252;2024-02-21T08:01:24;100938.13;;;6.59;86.20
46598;BME280;32318;48.858;8.252;2024-02-21T08:09:24;100924.97;;;6.69;85.90
46598;BME280;32318;48.858;8.252;2024-02-21T08:17:24;100912.91;;;6.76;85.79
46598;BME280;32318;48.858;8.252;2024-02-21T08:25:24;100903.38;;;6.85;84.67
46598;BME280;32318;48.858;8.252;2024-02-21T08:33:25;100889.81;;;6.99;85.03
46598;BME280;32318;48.858;8.252;2024-02-21T08:41:25;100894.38;;;7.09;83.93
46598;BME280;32318;48.858;8.252;2024-02-21T08:49:27;100890.84;;;7.19;84.31
46598;BME280;32318;48.858;8.252;2024-02-21T08:57:28;100882.19;;;7.38;83.79
46598;BME280;32318;48.858;8.252;2024-02-21T09:05:29;100878.38;;;7.52;83.09
46598;BME280;32318;48.858;8.252;2024-02-21T09:13:29;100877.69;;;7.72;83.40
46598;BME280;32318;48.858;8.252;2024-02-21T09:21:30;100848.84;;;7.88;81.58
46598;BME280;32318;48.858;8.252;2024-02-21T09:29:30;100839.78;;;8.00;80.56
46598;BME280;32318;48.858;8.252;2024-02-21T09:37:33;100835.78;;;8.16;79.79
46598;BME280;32318;48.858;8.252;2024-02-21T09:45:34;100817.41;;;8.44;80.29
46598;BME280;32318;48.858;8.252;2024-02-21T09:53:37;100813.56;;;8.68;80.10
46598;BME280;32318;48.858;8.252;2024-02-21T10:01:37;100801.66;;;8.82;78.16
46598;BME280;32318;48.858;8.252;2024-02-21T10:09:38;100793.97;;;8.98;78.34
46598;BME280;32318;48.858;8.252;2024-02-21T10:17:40;100775.19;;;9.09;75.78
46598;BME280;32318;48.858;8.252;2024-02-21T10:25:40;100757.09;;;9.23;73.44
46598;BME280;32318;48.858;8.252;2024-02-21T10:33:53;100744.84;;;9.40;72.07
46598;BME280;32318;48.858;8.252;2024-02-21T10:41:56;100744.25;;;9.56;70.99
46598;BME280;32318;48.858;8.252;2024-02-21T10:50:03;100740.56;;;9.67;68.45
46598;BME280;32318;48.858;8.252;2024-02-21T10:58:04;100713.28;;;9.83;68.51
46598;BME280;32318;48.858;8.252;2024-02-21T11:06:05;100696.34;;;10.02;67.46
46598;BME280;32318;48.858;8.252;2024-02-21T11:14:07;100684.47;;;10.14;68.97
46598;BME280;32318;48.858;8.252;2024-02-21T11:22:14;100674.25;;;10.28;66.82
46598;BME280;32318;48.858;8.252;2024-02-21T11:30:16;100653.38;;;10.41;66.87
46598;BME280;32318;48.858;8.252;2024-02-21T11:38:22;100626.41;;;10.44;65.74
46598;BME280;32318;48.858;8.252;2024-02-21T11:46:23;100610.63;;;10.51;63.48
46598;BME280;32318;48.858;8.252;2024-02-21T11:54:23;100592.16;;;10.58;65.81
46598;BME280;32318;48.858;8.252;2024-02-21T12:02:23;100570.84;;;10.66;64.60
46598;BME280;32318;48.858;8.252;2024-02-21T12:10:25;100558.88;;;10.78;64.25
46598;BME280;32318;48.858;8.252;2024-02-21T12:18:26;100544.94;;;10.93;64.65
46598;BME280;32318;48.858;8.252;2024-02-21T12:26:26;100530.97;;;10.99;62.35
46598;BME280;32318;48.858;8.252;2024-02-21T12:34:27;100529.38;;;11.14;63.01
46598;BME280;32318;48.858;8.252;2024-02-21T12:42:28;100508.00;;;11.23;64.00
46598;BME280;32318;48.858;8.252;2024-02-21T12:50:28;100486.94;;;11.20;60.98
46598;BME280;32318;48.858;8.252;2024-02-21T12:58:29;100466.25;;;11.22;63.75
46598;BME280;32318;48.858;8.252;2024-02-21T13:06:31;100446.22;;;11.18;60.40
46598;BME280;32318;48.858;8.252;2024-02-21T13:14:31;100438.00;;;11.11;63.35
46598;BME280;32318;48.858;8.252;2024-02-21T13:22:33;100414.59;;;11.05;61.63
46598;BME280;32318;48.858;8.252;2024-02-21T13:30:33;100408.72;;;11.01;63.31
46598;BME280;32318;48.858;8.252;2024-02-21T13:38:34;100382.00;;;11.01;63.09
46598;BME280;32318;48.858;8.252;2024-02-21T13:46:34;100351.97;;;10.99;63.49
46598;BME280;32318;48.858;8.252;2024-02-21T13:54:35;100343.09;;;10.98;65.19
46598;BME280;32318;48.858;8.252;2024-02-21T14:02:35;100330.59;;;10.99;63.89
46598;BME280;32318;48.858;8.252;2024-02-21T14:10:35;100310.22;;;11.06;63.32
46598;BME280;32318;48.858;8.252;2024-02-21T14:18:37;100285.00;;;11.09;63.51
46598;BME280;32318;48.858;8.252;2024-02-21T14:26:38;100279.66;;;11.09;63.78
46598;BME280;32318;48.858;8.252;2024-02-21T14:34:41;100246.78;;;11.08;63.45
46598;BME280;32318;48.858;8.252;2024-02-21T14:42:41;100223.56;;;11.09;62.32
46598;BME280;32318;48.858;8.252;2024-02-21T14:50:41;100215.53;;;11.09;63.17
46598;BME280;32318;48.858;8.252;2024-02-21T14:58:44;100207.53;;;11.01;62.89
46598;BME280;32318;48.858;8.252;2024-02-21T15:06:44;100205.69;;;11.01;63.53
46598;BME280;32318;48.858;8.252;2024-02-21T15:14:45;100190.00;;;10.98;63.03
46598;BME280;32318;48.858;8.252;2024-02-21T15:22:45;100177.84;;;10.95;63.62
46598;BME280;32318;48.858;8.252;2024-02-21T15:30:46;100145.94;;;10.94;64.69
46598;BME280;32318;48.858;8.252;2024-02-21T15:38:46;100085.50;;;10.93;65.44
46598;BME280;32318;48.858;8.252;2024-02-21T15:46:47;100075.66;;;10.85;65.39
46598;BME280;32318;48.858;8.252;2024-02-21T15:54:48;100073.50;;;10.80;65.65
46598;BME280;32318;48.858;8.252;2024-02-21T16:02:48;100123.09;;;10.75;66.00
46598;BME280;32318;48.858;8.252;2024-02-21T16:10:48;100121.22;;;10.75;66.32
46598;BME280;32318;48.858;8.252;2024-02-21T16:18:49;100080.66;;;10.80;67.18
46598;BME280;32318;48.858;8.252;2024-02-21T16:26:49;100059.47;;;10.87;68.13
46598;BME280;32318;48.858;8.252;2024-02-21T16:34:49;100058.16;;;10.82;67.69
46598;BME280;32318;48.858;8.252;2024-02-21T16:42:51;100071.34;;;10.84;68.25
46598;BME280;32318;48.858;8.252;2024-02-21T16:50:51;100037.94;;;10.80;68.71
46598;BME280;32318;48.858;8.252;2024-02-21T16:58:53;100039.13;;;10.77;68.69
46598;BME280;32318;48.858;8.252;2024-02-21T17:06:53;100022.63;;;10.74;69.50
46598;BME280;32318;48.858;8.252;2024-02-21T17:14:54;100008.59;;;10.63;69.65
46598;BME280;32318;48.858;8.252;2024-02-21T17:22:54;99989.78;;;10.65;69.65
46598;BME280;32318;48.858;8.252;2024-02-21T17:30:54;99977.56;;;10.62;69.65
46598;BME280;32318;48.858;8.252;2024-02-21T17:38:54;99963.09;;;10.57;69.70
46598;BME280;32318;48.858;8.252;2024-02-21T17:46:55;99959.41;;;10.49;70.30
46598;BME280;32318;48.858;8.252;2024-02-21T17:54:56;99967.13;;;10.44;70.67
46598;BME280;32318;48.858;8.252;2024-02-21T18:02:57;99947.13;;;10.40;70.64
46598;BME280;32318;48.858;8.252;2024-02-21T18:10:59;99932.13;;;10.39;70.87
46598;BME280;32318;48.858;8.252;2024-02-21T18:18:59;99903.06;;;10.36;71.11
46598;BME280;32318;48.858;8.252;2024-02-21T18:26:59;99905.91;;;10.34;71.17
46598;BME280;32318;48.858;8.252;2024-02-21T18:35:00;99888.22;;;10.33;71.38
46598;BME280;32318;48.858;8.252;2024-02-21T18:43:00;99876.22;;;10.29;71.98
46598;BME280;32318;48.858;8.252;2024-02-21T18:51:01;99882.44;;;10.22;71.76
46598;BME280;32318;48.858;8.252;2024-02-21T18:59:01;99874.09;;;10.16;72.05
46598;BME280;32318;48.858;8.252;2024-02-21T19:07:04;99873.78;;;10.11;72.48
46598;BME280;32318;48.858;8.252;2024-02-21T19:15:04;99854.44;;;10.09;71.87
46598;BME280;32318;48.858;8.252;2024-02-21T19:23:05;99858.47;;;10.05;71.92
46598;BME280;32318;48.858;8.252;2024-02-21T19:31:07;99831.78;;;10.05;71.84
46598;BME280;32318;48.858;8.252;2024-02-21T19:39:08;99829.13;;;10.05;70.60
46598;BME280;32318;48.858;8.252;2024-02-21T19:47:11;99822.28;;;10.02;68.08
46598;BME280;32318;48.858;8.252;2024-02-21T19:55:14;99798.44;;;10.01;67.78
46598;BME280;32318;48.858;8.252;2024-02-21T20:03:15;99787.97;;;9.99;67.00
46598;BME280;32318;48.858;8.252;2024-02-21T20:11:18;99755.78;;;10.01;65.25
46598;BME280;32318;48.858;8.252;2024-02-21T20:19:18;99697.16;;;10.24;62.53
46598;BME280;32318;48.858;8.252;2024-02-21T20:27:19;99684.34;;;10.51;62.00
46598;BME280;32318;48.858;8.252;2024-02-21T20:35:19;99686.44;;;10.64;59.54
46598;BME280;32318;48.858;8.252;2024-02-21T20:43:20;99697.31;;;10.77;61.95
46598;BME280;32318;48.858;8.252;2024-02-21T20:51:21;99695.31;;;10.79;60.14
46598;BME280;32318;48.858;8.252;2024-02-21T20:59:21;99679.88;;;10.90;59.52
46598;BME280;32318;48.858;8.252;2024-02-21T21:07:23;99679.81;;;10.98;61.10
46598;BME280;32318;48.858;8.252;2024-02-21T21:15:23;99665.13;;;10.94;60.87
46598;BME280;32318;48.858;8.252;2024-02-21T21:23:26;99652.59;;;10.79;61.49
46598;BME280;32318;48.858;8.252;2024-02-21T21:31:26;99653.00;;;10.68;61.99
46598;BME280;32318;48.858;8.252;2024-02-21T21:39:27;99638.44;;;10.56;62.10
46598;BME280;32318;48.858;8.252;2024-02-21T21:47:27;99625.63;;;10.51;63.43
46598;BME280;32318;48.858;8.252;2024-02-21T21:55:28;99607.66;;;10.45;64.59
46598;BME280;32318;48.858;8.252;2024-02-21T22:03:28;99592.34;;;10.39;64.71
46598;BME280;32318;48.858;8.252;2024-02-21T22:11:28;99579.53;;;10.34;66.49
46598;BME280;32318;48.858;8.252;2024-02-21T22:19:30;99569.56;;;10.28;66.59
46598;BME280;32318;48.858;8.252;2024-02-21T22:27:31;99560.25;;;10.24;67.08
46598;BME280;32318;48.858;8.252;2024-02-21T22:35:31;99547.63;;;10.17;68.08
46598;BME280;32318;48.858;8.252;2024-02-21T22:43:31;99548.03;;;10.06;70.56
46598;BME280;32318;48.858;8.252;2024-02-21T22:51:33;99533.59;;;10.00;70.29
46598;BME280;32318;48.858;8.252;2024-02-21T22:59:33;99525.00;;;9.90;72.35
46598;BME280;32318;48.858;8.252;2024-02-21T23:07:34;99511.25;;;9.78;74.40
46598;BME280;32318;48.858;8.252;2024-02-21T23:15:34;99498.00;;;9.70;75.67
46598;BME280;32318;48.858;8.252;2024-02-21T23:23:35;99470.34;;;9.63;74.36
46598;BME280;32318;48.858;8.252;2024-02-21T23:31:38;99467.47;;;9.49;79.33
46598;BME280;32318;48.858;8.252;2024-02-21T23:39:38;99449.72;;;9.33;80.98
46598;BME280;32318;48.858;8.252;2024-02-21T23:47:39;99428.66;;;9.23;81.63
46598;BME280;32318;48.858;8.252;2024-02-21T23:55:39;99407.22;;;9.17;84.86
